Time;durP1;ratioP1;P1;durP2;ratioP2;P2;SDS_P1;SDS_P2;PMS_P1;PMS_P2;Temp;Humidity;BMP_temperature;BMP_pressure;BME280_temperature;BME280_humidity;BME280_pressure;Samples;Min_cycle;Max_cycle;Signal;HPM_P1;HPM_P2
2022/02/11 00:02:11;;;;;;;3.83;3.50;;;;;;;3.54;90.55;101128.09;5025050;28;20199;-77
2022/02/11 00:04:56;;;;;;;3.80;3.47;;;;;;;3.53;90.59;101110.88;5024732;28;20637;-78
2022/02/11 00:07:25;;;;;;;5.63;3.57;;;;;;;3.63;91.11;101096.47;5015816;28;20296;-78
2022/02/11 00:09:52;;;;;;;5.37;3.90;;;;;;;3.47;91.17;101092.69;5014887;28;20626;-77
2022/02/11 00:12:18;;;;;;;4.13;3.63;;;;;;;3.52;91.65;101077.28;5014753;28;20214;-77
2022/02/11 00:14:52;;;;;;;3.67;3.37;;;;;;;3.52;92.36;101067.84;5014511;28;20282;-77
2022/02/11 00:17:19;;;;;;;4.83;4.43;;;;;;;3.68;92.04;101062.97;5014621;28;20276;-77
2022/02/11 00:19:45;;;;;;;4.00;3.50;;;;;;;3.70;91.76;101074.22;5013329;28;20254;-77
2022/02/11 00:22:12;;;;;;;4.27;3.97;;;;;;;3.65;92.00;101071.53;5022916;28;20212;-77
2022/02/11 00:24:40;;;;;;;4.13;3.80;;;;;;;3.72;91.78;101063.06;5034072;28;20258;-77
2022/02/11 00:32:35;;;;;;;3.90;3.60;;;;;;;3.98;91.71;101067.84;5029785;28;20627;-77
2022/02/11 00:35:11;;;;;;;4.40;4.00;;;;;;;4.08;91.22;101069.75;5033491;28;20205;-77
2022/02/11 00:37:40;;;;;;;5.57;2.53;;;;;;;4.10;91.02;101085.28;5033965;28;20716;-77
2022/02/11 00:40:24;;;;;;;4.73;4.33;;;;;;;3.78;91.15;101080.38;5033745;28;20210;-77
2022/02/11 00:45:50;;;;;;;6.13;4.23;;;;;;;4.00;91.49;101057.53;5032245;28;20226;-77
2022/02/11 01:02:19;;;;;;;6.23;5.63;;;;;;;3.85;90.38;101096.88;5013741;28;20935;-77
2022/02/11 01:04:47;;;;;;;6.60;5.37;;;;;;;3.91;90.76;101091.84;5013846;28;20236;-77
2022/02/11 01:07:13;;;;;;;6.27;5.00;;;;;;;3.85;90.88;101079.66;5013492;28;20227;-77
2022/02/11 01:09:41;;;;;;;5.67;4.47;;;;;;;3.74;91.64;101058.78;5013144;28;20589;-77
2022/02/11 01:12:11;;;;;;;6.30;4.93;;;;;;;3.88;91.21;101061.63;5013584;28;20242;-77
2022/02/11 01:14:40;;;;;;;6.03;4.90;;;;;;;3.98;90.84;101066.16;5013489;28;20225;-77
2022/02/11 01:17:14;;;;;;;9.07;4.83;;;;;;;4.09;90.46;101081.81;5013341;28;20253;-77
2022/02/11 01:19:51;;;;;;;8.97;5.77;;;;;;;3.85;89.81;101100.34;5013351;28;20298;-77
2022/02/11 01:22:28;;;;;;;5.73;5.23;;;;;;;3.93;90.23;101095.31;5022385;28;20210;-77
2022/02/11 01:25:26;;;;;;;7.00;5.23;;;;;;;3.87;90.56;101093.47;5032584;28;20229;-77
2022/02/11 01:28:03;;;;;;;5.07;4.57;;;;;;;3.98;90.59;101085.91;5035750;28;20205;-77
2022/02/11 01:30:55;;;;;;;5.97;4.83;;;;;;;4.06;90.91;101068.84;5035953;28;20269;-77
2022/02/11 01:36:37;;;;;;;5.83;5.23;;;;;;;3.98;89.92;101101.41;4974349;28;20255;-77
2022/02/11 01:39:33;;;;;;;6.83;4.60;;;;;;;4.03;89.89;101102.38;4974902;28;20282;-77
2022/02/11 01:45:25;;;;;;;5.40;4.77;;;;;;;3.97;89.35;101115.19;5034808;28;20240;-77
2022/02/11 01:50:55;;;;;;;6.10;3.50;;;;;;;3.98;89.09;101120.41;5032425;28;20239;-77
2022/02/11 01:53:31;;;;;;;6.80;3.77;;;;;;;4.08;88.46;101123.13;5036184;28;20309;-78
2022/02/11 01:56:10;;;;;;;6.17;3.50;;;;;;;4.07;88.05;101142.06;5033962;28;20197;-79
2022/02/11 02:01:52;;;;;;;6.23;3.60;;;;;;;3.96;87.57;101163.41;5038115;28;20210;-78
2022/02/11 02:05:04;;;;;;;4.90;3.00;;;;;;;3.94;87.81;101156.44;5037537;28;20730;-79
2022/02/11 02:10:51;;;;;;;8.13;2.97;;;;;;;3.95;87.82;101148.72;5036256;28;20566;-79
2022/02/11 02:19:29;;;;;;;5.70;3.50;;;;;;;4.18;88.83;101112.13;5033391;28;20674;-78
2022/02/11 02:22:23;;;;;;;5.43;3.73;;;;;;;4.23;88.99;101110.50;5036754;28;20227;-79
2022/02/11 02:25:05;;;;;;;5.57;3.57;;;;;;;4.32;88.45;101117.53;5031612;28;20234;-78
2022/02/11 02:27:58;;;;;;;10.03;4.73;;;;;;;4.32;87.42;101128.75;5036817;28;20280;-78
2022/02/11 02:33:42;;;;;;;7.13;6.43;;;;;;;4.06;87.23;101146.34;5037519;28;20276;-77
2022/02/11 02:50:19;;;;;;;7.07;6.43;;;;;;;3.96;86.89;101131.50;5040414;28;20295;-78
2022/02/11 02:58:36;;;;;;;6.00;5.33;;;;;;;4.05;86.01;101144.63;5039277;28;20297;-78
2022/02/11 03:01:28;;;;;;;8.07;5.60;;;;;;;3.88;85.38;101158.91;5039670;28;20667;-79
2022/02/11 03:15:12;;;;;;;6.70;6.10;;;;;;;3.78;86.71;101142.34;5040097;28;20252;-78
2022/02/11 03:31:32;;;;;;;9.43;7.20;;;;;;;3.74;87.16;101123.34;5039271;28;20328;-78
2022/02/11 03:51:28;;;;;;;8.87;7.90;;;;;;;3.16;93.62;100898.56;5033904;28;20256;-77
2022/02/11 03:54:31;;;;;;;6.77;6.20;;;;;;;3.21;93.27;100928.75;5034192;28;20237;-77
2022/02/11 04:22:14;;;;;;;6.13;5.63;;;;;;;2.62;90.62;101004.00;5027507;28;20257;-77
2022/02/11 04:55:04;;;;;;;14.17;11.83;;;;;;;2.65;90.67;100993.78;5034784;28;20228;-77
2022/02/11 05:00:16;;;;;;;16.30;13.23;;;;;;;2.44;90.79;100995.03;5034185;28;20214;-77
2022/02/11 05:02:43;;;;;;;14.57;12.03;;;;;;;2.55;91.35;100974.66;5034058;28;20229;-77
2022/02/11 05:05:10;;;;;;;14.00;12.57;;;;;;;2.63;90.85;100959.38;5034078;28;20207;-77
2022/02/11 05:07:37;;;;;;;13.47;11.57;;;;;;;2.71;90.64;100966.41;5034412;28;20290;-77
2022/02/11 05:10:07;;;;;;;14.30;12.90;;;;;;;2.67;91.02;100972.34;5033876;28;20638;-77
2022/02/11 05:12:35;;;;;;;13.13;11.97;;;;;;;2.63;91.17;100956.78;5034970;28;20210;-77
2022/02/11 05:15:05;;;;;;;12.70;11.40;;;;;;;2.61;90.93;100953.31;5034431;28;20206;-77
2022/02/11 05:17:32;;;;;;;14.43;13.10;;;;;;;2.56;90.32;100960.97;5034454;28;20237;-77
2022/02/11 05:19:58;;;;;;;16.20;12.83;;;;;;;2.56;90.66;100966.97;5034336;28;20203;-77
2022/02/11 05:22:24;;;;;;;15.60;13.20;;;;;;;2.56;90.73;100958.38;5033314;28;20761;-77
2022/02/11 05:24:51;;;;;;;14.10;12.17;;;;;;;2.40;90.56;100964.91;5034502;28;20218;-77
2022/02/11 05:27:18;;;;;;;14.97;13.57;;;;;;;2.30;91.11;100955.19;5034736;28;20226;-78
2022/02/11 05:29:45;;;;;;;14.67;12.57;;;;;;;2.42;91.01;100954.59;5033870;28;20621;-77
2022/02/11 05:32:11;;;;;;;15.37;13.53;;;;;;;2.37;91.07;100949.34;5034800;28;20257;-77
2022/02/11 05:34:38;;;;;;;21.23;13.10;;;;;;;2.42;91.33;100954.59;5034382;28;20284;-77
2022/02/11 05:37:04;;;;;;;15.57;14.00;;;;;;;2.51;91.50;100952.25;5034103;28;20202;-77
2022/02/11 05:39:31;;;;;;;15.37;13.97;;;;;;;2.53;91.42;100950.56;5033527;28;20215;-77
2022/02/11 05:41:57;;;;;;;19.23;13.97;;;;;;;2.55;91.33;100947.19;5034464;28;20256;-77
2022/02/11 05:44:25;;;;;;;14.90;13.47;;;;;;;2.42;91.18;100955.50;5033807;28;20280;-77
2022/02/11 05:46:52;;;;;;;15.33;13.70;;;;;;;2.57;91.47;100953.25;5033183;28;20280;-77
2022/02/11 05:49:18;;;;;;;15.27;13.77;;;;;;;2.71;90.58;100942.38;5033417;28;20249;-78
2022/02/11 05:51:45;;;;;;;16.70;13.87;;;;;;;2.78;90.49;100958.00;5037010;22;20307;-75
2022/02/11 05:54:11;;;;;;;15.73;13.20;;;;;;;2.86;89.95;100967.63;5000522;28;20885;-75
2022/02/11 05:56:38;;;;;;;15.00;13.63;;;;;;;2.90;90.95;100962.53;4991902;28;20271;-78
2022/02/11 05:59:04;;;;;;;14.27;12.77;;;;;;;2.90;90.00;100965.13;4992482;28;20207;-77
2022/02/11 06:01:32;;;;;;;16.03;13.33;;;;;;;2.85;89.51;100984.75;4992184;28;20270;-75
2022/02/11 06:03:58;;;;;;;16.60;12.97;;;;;;;2.85;89.16;100973.59;4992506;28;20223;-77
2022/02/11 06:06:25;;;;;;;14.60;13.07;;;;;;;2.88;89.70;100965.94;4992182;28;20738;-77
2022/02/11 06:08:51;;;;;;;15.67;12.70;;;;;;;2.96;89.93;100956.66;4992279;28;20254;-77
2022/02/11 06:11:17;;;;;;;15.57;13.10;;;;;;;3.07;90.24;100959.44;4992308;28;20207;-75
2022/02/11 06:13:44;;;;;;;19.80;12.17;;;;;;;3.03;90.04;100963.66;4992275;28;20282;-77
2022/02/11 06:16:10;;;;;;;14.33;12.83;;;;;;;3.07;90.23;100950.00;4998691;28;20207;-75
2022/02/11 06:18:38;;;;;;;14.37;12.93;;;;;;;3.15;90.38;100938.13;5015505;28;20627;-77
2022/02/11 06:21:04;;;;;;;13.80;12.50;;;;;;;3.14;90.20;100938.09;5015387;28;20677;-77
2022/02/11 06:23:31;;;;;;;13.43;12.20;;;;;;;3.00;90.28;100930.06;5014884;28;20277;-74
2022/02/11 06:25:58;;;;;;;14.13;12.73;;;;;;;2.96;90.33;100926.56;5015632;28;20289;-77
2022/02/11 06:28:25;;;;;;;15.00;13.23;;;;;;;3.11;90.93;100922.53;5015596;28;20276;-76
2022/02/11 06:30:51;;;;;;;19.10;13.00;;;;;;;3.09;91.20;100919.94;5015396;28;20218;-76
2022/02/11 06:33:18;;;;;;;12.83;11.57;;;;;;;3.06;90.99;100922.47;5015317;28;20273;-76
2022/02/11 06:35:45;;;;;;;15.37;13.20;;;;;;;3.14;91.44;100928.63;5015647;28;20217;-76
2022/02/11 06:38:12;;;;;;;17.60;13.73;;;;;;;3.10;91.62;100919.09;5015470;28;20276;-76
2022/02/11 06:40:38;;;;;;;14.27;12.87;;;;;;;3.11;91.37;100913.13;5015052;28;20632;-76
2022/02/11 06:43:06;;;;;;;13.33;11.43;;;;;;;3.13;91.06;100931.16;5015040;28;20609;-76
2022/02/11 06:45:32;;;;;;;13.53;11.83;;;;;;;3.10;90.74;100949.19;5015422;28;20215;-76
2022/02/11 06:47:59;;;;;;;13.57;12.17;;;;;;;3.15;91.08;100939.81;5015450;28;20226;-76
2022/02/11 06:50:25;;;;;;;13.33;12.03;;;;;;;3.11;90.72;100946.66;5015165;28;20211;-76
2022/02/11 06:52:55;;;;;;;12.93;11.87;;;;;;;3.18;90.66;100952.78;5014902;28;20222;-76
2022/02/11 06:55:22;;;;;;;14.10;12.60;;;;;;;3.13;91.09;100949.22;5014791;28;20199;-76
2022/02/11 06:57:49;;;;;;;14.30;12.90;;;;;;;3.22;91.47;100936.53;5014929;28;20198;-77
2022/02/11 07:00:17;;;;;;;13.70;12.40;;;;;;;3.15;91.57;100934.66;5014931;28;20261;-76
2022/02/11 07:02:44;;;;;;;13.87;12.57;;;;;;;3.12;91.65;100939.75;5015169;28;20203;-76
2022/02/11 07:05:10;;;;;;;15.63;12.97;;;;;;;3.07;91.95;100926.78;5015130;28;20211;-76
2022/02/11 07:07:37;;;;;;;13.67;12.43;;;;;;;3.11;92.21;100930.28;5014953;28;20258;-77
2022/02/11 07:10:06;;;;;;;12.97;11.90;;;;;;;3.17;91.79;100943.28;5014605;28;20572;-76
2022/02/11 07:12:32;;;;;;;14.07;12.87;;;;;;;3.16;92.46;100932.09;5014637;28;20216;-76
2022/02/11 07:14:59;;;;;;;14.27;12.97;;;;;;;3.28;92.41;100923.72;5014563;28;20723;-76
2022/02/11 07:17:25;;;;;;;14.03;12.93;;;;;;;3.16;92.50;100908.91;5014888;28;20255;-76
2022/02/11 07:19:52;;;;;;;13.93;12.73;;;;;;;3.19;92.74;100905.50;5014457;28;20261;-76
2022/02/11 07:22:18;;;;;;;13.73;12.70;;;;;;;3.28;93.05;100912.56;5013939;28;20668;-77
2022/02/11 07:24:44;;;;;;;13.23;12.17;;;;;;;3.30;93.00;100910.88;5014629;28;20277;-76
2022/02/11 07:27:12;;;;;;;13.40;12.30;;;;;;;3.27;93.21;100908.22;5013936;28;20645;-77
2022/02/11 07:29:38;;;;;;;12.93;11.93;;;;;;;3.33;93.21;100906.63;5014292;28;20273;-76
2022/02/11 07:32:06;;;;;;;13.20;12.10;;;;;;;3.26;93.55;100902.19;5014239;28;20211;-77
2022/02/11 07:34:32;;;;;;;14.27;13.17;;;;;;;3.25;93.98;100895.31;5014425;28;20263;-74
2022/02/11 07:36:59;;;;;;;13.17;11.97;;;;;;;3.09;94.31;100882.94;5014255;28;20268;-74
2022/02/11 07:39:26;;;;;;;12.63;11.63;;;;;;;3.01;94.73;100856.16;5014235;28;20218;-74
2022/02/11 07:41:52;;;;;;;12.57;11.47;;;;;;;3.11;94.91;100850.31;5013499;28;20722;-74
2022/02/11 07:44:20;;;;;;;12.13;11.10;;;;;;;3.20;95.30;100858.22;5013401;28;20702;-74
2022/02/11 07:46:48;;;;;;;10.97;9.97;;;;;;;3.17;94.66;100871.06;5013615;28;20200;-74
2022/02/11 07:49:14;;;;;;;9.00;8.30;;;;;;;3.19;93.95;100895.19;5013820;28;20198;-74
2022/02/11 07:51:41;;;;;;;7.37;6.73;;;;;;;3.14;93.27;100914.88;5013286;28;20211;-73
2022/02/11 07:54:07;;;;;;;6.33;5.80;;;;;;;3.14;93.66;100908.00;5013583;28;20214;-73
2022/02/11 07:56:34;;;;;;;7.20;6.60;;;;;;;3.27;93.99;100903.06;5013361;28;20200;-73
2022/02/11 07:59:00;;;;;;;8.55;7.95;;;;;;;3.22;93.68;100910.72;5013064;28;20435;-74
2022/02/11 08:01:28;;;;;;;6.80;6.20;;;;;;;3.20;93.91;100917.56;5013364;28;20195;-74
2022/02/11 08:03:56;;;;;;;7.50;6.80;;;;;;;3.18;93.92;100907.22;5013611;28;20224;-75
2022/02/11 08:06:22;;;;;;;7.47;6.87;;;;;;;3.24;94.39;100903.03;5013304;28;20232;-74
2022/02/11 08:08:49;;;;;;;7.20;6.50;;;;;;;3.16;94.30;100901.16;5013547;28;20226;-75
2022/02/11 08:11:16;;;;;;;8.70;6.87;;;;;;;3.17;95.04;100894.28;5013032;28;20256;-74
2022/02/11 08:13:42;;;;;;;6.37;5.83;;;;;;;3.20;94.68;100888.31;5013108;28;20246;-75
2022/02/11 08:16:08;;;;;;;6.33;5.87;;;;;;;3.22;94.60;100900.41;5013139;28;20258;-75
2022/02/11 08:18:36;;;;;;;5.70;5.23;;;;;;;3.24;94.08;100924.50;5013252;28;20195;-75
2022/02/11 08:21:03;;;;;;;6.40;5.90;;;;;;;3.30;93.60;100931.50;5012827;28;20203;-75
2022/02/11 08:23:29;;;;;;;6.03;5.43;;;;;;;3.35;93.71;100932.44;5012854;28;20228;-75
2022/02/11 08:25:56;;;;;;;5.80;5.40;;;;;;;3.44;93.90;100924.03;5013010;28;20202;-76
2022/02/11 08:28:22;;;;;;;5.30;4.90;;;;;;;3.43;92.49;100960.97;5012789;28;20688;-76
2022/02/11 08:30:50;;;;;;;5.70;5.20;;;;;;;3.48;92.99;100967.09;5012271;28;20911;-75
2022/02/11 08:33:21;;;;;;;5.70;5.20;;;;;;;3.51;92.96;100973.19;5012431;28;20807;-75
2022/02/11 08:35:50;;;;;;;5.10;4.70;;;;;;;3.48;92.74;100975.72;5012980;28;20233;-75
2022/02/11 08:38:17;;;;;;;5.73;5.20;;;;;;;3.53;93.04;100968.94;5012900;28;20252;-75
2022/02/11 08:40:43;;;;;;;5.43;4.90;;;;;;;3.52;92.52;100981.81;5011949;28;20244;-75
2022/02/11 08:43:09;;;;;;;5.67;5.13;;;;;;;3.54;92.71;100974.94;5012440;28;20703;-76
2022/02/11 08:45:40;;;;;;;5.27;4.63;;;;;;;3.49;93.41;100968.81;5012368;28;20199;-75
2022/02/11 08:48:07;;;;;;;5.77;4.97;;;;;;;3.58;94.46;100938.88;5012291;28;20261;-75
2022/02/11 08:50:34;;;;;;;6.03;5.50;;;;;;;3.72;94.22;100941.72;5012145;28;20730;-76
2022/02/11 08:53:02;;;;;;;4.40;4.00;;;;;;;3.57;93.86;100954.38;5008002;28;20226;-75
2022/02/11 08:55:28;;;;;;;4.60;4.20;;;;;;;3.60;93.76;100967.31;5012119;28;20210;-74
2022/02/11 08:57:59;;;;;;;3.40;3.10;;;;;;;3.55;93.19;100967.25;5012525;28;20554;-75
2022/02/11 09:00:26;;;;;;;3.77;3.37;;;;;;;3.73;93.58;100958.09;5012625;28;20195;-75
2022/02/11 09:02:53;;;;;;;3.77;3.53;;;;;;;3.72;93.27;100977.84;5012532;28;20253;-75
2022/02/11 09:05:21;;;;;;;4.37;3.03;;;;;;;3.73;93.98;100961.53;5011834;28;20231;-73
2022/02/11 09:07:48;;;;;;;4.33;3.30;;;;;;;3.68;94.34;100952.84;5012512;28;20917;-74
2022/02/11 09:10:15;;;;;;;4.37;3.10;;;;;;;3.65;95.01;100928.66;5010511;28;20201;-77
2022/02/11 09:12:42;;;;;;;2.83;2.63;;;;;;;3.59;95.92;100911.41;5012160;28;20270;-75
2022/02/11 09:15:08;;;;;;;4.50;2.80;;;;;;;3.57;96.38;100905.34;5011941;28;20241;-75
2022/02/11 09:17:35;;;;;;;3.87;1.93;;;;;;;3.65;96.31;100879.63;5012182;28;20210;-75
2022/02/11 09:20:01;;;;;;;3.07;1.60;;;;;;;3.77;96.36;100883.28;5011546;28;20625;-75
2022/02/11 09:22:30;;;;;;;4.77;2.10;;;;;;;3.77;96.53;100891.03;5011728;28;20203;-75
2022/02/11 09:24:56;;;;;;;3.40;1.57;;;;;;;3.84;96.54;100898.88;5011319;28;20323;-75
2022/02/11 09:27:24;;;;;;;2.33;1.33;;;;;;;3.83;96.69;100895.44;5012053;28;20203;-75
2022/02/11 09:29:51;;;;;;;3.23;1.33;;;;;;;3.90;96.18;100914.47;5011509;28;20204;-74
2022/02/11 09:32:18;;;;;;;3.50;1.57;;;;;;;3.88;96.32;100917.00;5011955;28;20209;-75
2022/02/11 09:34:44;;;;;;;3.07;1.07;;;;;;;3.80;95.70;100922.91;5011665;28;20286;-74
2022/02/11 09:37:11;;;;;;;1.80;0.93;;;;;;;3.56;96.21;100912.19;5011930;28;20211;-74
2022/02/11 09:39:37;;;;;;;3.50;1.50;;;;;;;3.58;97.90;100887.28;5011702;28;20255;-75
2022/02/11 09:42:04;;;;;;;1.70;0.67;;;;;;;3.43;97.29;100862.91;5011453;28;20675;-75
2022/02/11 09:44:33;;;;;;;1.70;0.90;;;;;;;3.30;98.02;100862.72;5011672;28;20371;-74
2022/02/11 09:47:00;;;;;;;2.40;1.00;;;;;;;3.36;98.46;100854.22;5011656;28;20213;-74
2022/02/11 09:49:26;;;;;;;4.63;0.97;;;;;;;3.42;98.82;100854.31;5011534;28;20223;-75
2022/02/11 09:51:54;;;;;;;2.80;0.80;;;;;;;3.44;99.17;100839.72;5011261;28;20632;-75
2022/02/11 09:54:22;;;;;;;1.60;0.50;;;;;;;3.47;99.02;100859.53;5011214;28;20719;-75
2022/02/11 09:56:50;;;;;;;2.17;0.60;;;;;;;3.46;98.76;100855.25;5011514;28;20214;-75
2022/02/11 09:59:17;;;;;;;1.70;0.40;;;;;;;3.50;99.17;100859.59;5011464;28;20239;-75
2022/02/11 10:01:45;;;;;;;1.27;0.60;;;;;;;3.49;99.11;100873.34;5010179;28;20258;-75
2022/02/11 10:04:13;;;;;;;1.43;0.83;;;;;;;3.56;99.62;100878.63;5011597;28;20302;-75
2022/02/11 10:06:40;;;;;;;2.03;0.50;;;;;;;3.44;99.32;100881.00;5011712;28;20265;-74
2022/02/11 10:09:07;;;;;;;0.60;0.30;;;;;;;3.48;99.45;100885.38;5011460;28;20235;-74
2022/02/11 10:11:34;;;;;;;1.40;0.50;;;;;;;3.50;99.41;100894.00;5011441;28;20560;-75
2022/02/11 10:14:22;;;;;;;1.13;0.57;;;;;;;3.57;99.62;100900.16;5011813;28;20751;-74
2022/02/11 10:16:59;;;;;;;1.43;0.50;;;;;;;3.58;99.57;100889.84;5010753;28;20200;-74
2022/02/11 10:19:40;;;;;;;2.07;0.50;;;;;;;3.58;99.61;100892.44;5012037;28;20191;-74
2022/02/11 10:22:08;;;;;;;0.53;0.40;;;;;;;3.58;99.00;100912.22;5011432;28;20221;-75
2022/02/11 10:24:35;;;;;;;3.27;0.57;;;;;;;3.60;99.45;100915.69;5011774;28;20214;-74
2022/02/11 10:27:25;;;;;;;1.53;0.67;;;;;;;3.62;100.00;100924.34;5011891;28;20218;-75
2022/02/11 10:29:55;;;;;;;1.50;0.60;;;;;;;3.57;99.73;100926.84;5010999;28;20862;-74
2022/02/11 10:32:39;;;;;;;3.33;0.63;;;;;;;3.61;99.68;100921.72;5011534;28;20211;-74
2022/02/11 10:35:07;;;;;;;2.50;0.70;;;;;;;3.65;99.75;100933.84;5011867;28;20256;-74
2022/02/11 10:37:33;;;;;;;2.20;0.80;;;;;;;3.61;99.56;100934.63;5011683;28;20237;-74
2022/02/11 10:40:01;;;;;;;0.97;0.83;;;;;;;3.66;99.30;100939.03;5011320;28;20199;-74
2022/02/11 10:42:46;;;;;;;2.87;0.87;;;;;;;3.68;99.90;100937.34;5011644;28;20265;-74
2022/02/11 10:45:29;;;;;;;2.63;0.77;;;;;;;3.69;100.00;100935.66;5011734;28;20218;-74
2022/02/11 10:48:15;;;;;;;1.33;0.57;;;;;;;3.70;100.00;100938.22;5011402;28;20218;-75
2022/02/11 10:50:46;;;;;;;2.83;1.00;;;;;;;3.71;100.00;100945.16;5011292;28;20207;-75
2022/02/11 10:53:21;;;;;;;3.07;0.80;;;;;;;3.71;100.00;100949.47;5010851;28;20231;-74
2022/02/11 10:55:48;;;;;;;2.50;0.80;;;;;;;3.70;100.00;100945.13;5011711;28;20206;-74
2022/02/11 10:58:18;;;;;;;0.80;0.77;;;;;;;3.70;100.00;100950.28;5011497;28;20623;-75
2022/02/11 11:00:45;;;;;;;1.70;0.90;;;;;;;3.73;100.00;100932.28;5011100;28;20250;-74
2022/02/11 11:03:13;;;;;;;2.50;1.13;;;;;;;3.72;100.00;100933.09;5012574;28;20280;-75
2022/02/11 11:05:41;;;;;;;1.93;0.70;;;;;;;3.83;100.00;100952.25;5014839;28;20206;-74
2022/02/11 11:08:08;;;;;;;1.13;0.53;;;;;;;3.84;100.00;100976.34;5014618;28;20314;-75
2022/02/11 11:10:35;;;;;;;1.70;0.63;;;;;;;3.92;99.73;100992.84;5014641;28;20560;-74
2022/02/11 11:13:03;;;;;;;1.77;0.50;;;;;;;4.00;99.03;101003.31;5014524;28;20778;-74
2022/02/11 11:15:30;;;;;;;0.70;0.50;;;;;;;4.03;98.55;101017.16;5014739;28;20212;-74
2022/02/11 11:17:58;;;;;;;2.03;0.70;;;;;;;4.11;98.76;101030.19;5014916;28;20211;-74
2022/02/11 11:20:26;;;;;;;0.73;0.57;;;;;;;4.07;98.28;101041.31;5014518;28;20226;-74
2022/02/11 11:22:58;;;;;;;1.40;0.60;;;;;;;4.07;97.75;101039.59;5014074;28;20211;-74
2022/02/11 11:25:24;;;;;;;3.40;0.70;;;;;;;4.03;97.90;101057.63;5014543;28;20253;-74
2022/02/11 11:27:52;;;;;;;4.70;1.20;;;;;;;4.00;98.41;101063.56;5014796;28;20207;-74
2022/02/11 11:30:24;;;;;;;0.87;0.50;;;;;;;3.96;98.86;101061.78;5014136;28;20261;-74
2022/02/11 11:33:26;;;;;;;2.90;0.90;;;;;;;3.98;100.00;101034.25;5014275;28;20242;-74
2022/02/11 11:36:05;;;;;;;1.10;0.80;;;;;;;3.95;100.00;101029.91;5014619;28;20217;-75
2022/02/11 11:38:44;;;;;;;1.50;1.40;;;;;;;3.91;100.00;101012.63;5014551;28;20245;-74
2022/02/11 11:41:15;;;;;;;2.53;0.80;;;;;;;3.87;100.00;101008.25;5013997;28;20192;-74
2022/02/11 11:43:44;;;;;;;1.47;0.70;;;;;;;3.89;100.00;100993.66;5014416;28;20233;-74
2022/02/11 11:46:25;;;;;;;1.33;0.80;;;;;;;3.92;100.00;101004.03;5013362;28;20231;-75
2022/02/11 11:48:53;;;;;;;1.87;0.80;;;;;;;3.83;100.00;101029.72;5014130;28;20226;-74
2022/02/11 11:51:21;;;;;;;1.00;0.60;;;;;;;3.87;100.00;101054.75;5013483;28;20210;-75
2022/02/11 11:53:48;;;;;;;0.43;0.30;;;;;;;3.90;100.00;101048.75;5023247;22;20238;-79
2022/02/11 11:56:34;;;;;;;0.30;0.30;;;;;;;3.95;100.00;101060.91;4999639;28;20704;-80
2022/02/11 11:59:14;;;;;;;0.53;0.53;;;;;;;4.01;100.00;101057.56;4997090;28;20212;-78
2022/02/11 12:01:55;;;;;;;0.97;0.40;;;;;;;3.91;100.00;101071.19;4996513;28;20213;-78
2022/02/11 12:04:23;;;;;;;1.73;0.57;;;;;;;3.92;100.00;101078.91;4996393;28;20225;-81
2022/02/11 12:06:53;;;;;;;2.13;0.60;;;;;;;3.92;100.00;101078.06;4996199;28;20676;-79
2022/02/11 12:09:22;;;;;;;1.10;0.47;;;;;;;3.93;100.00;101074.66;4996368;28;20248;-80
2022/02/11 12:11:53;;;;;;;0.90;0.60;;;;;;;3.93;100.00;101067.78;4996427;28;20214;-78
2022/02/11 12:14:19;;;;;;;1.93;0.70;;;;;;;3.97;100.00;101081.63;4996458;28;20758;-78
2022/02/11 12:16:46;;;;;;;1.60;0.80;;;;;;;4.03;100.00;101078.28;5003474;28;20564;-80
2022/02/11 12:19:13;;;;;;;0.97;0.70;;;;;;;4.03;100.00;101092.06;5015855;28;20199;-80
2022/02/11 12:21:40;;;;;;;1.70;0.80;;;;;;;3.98;100.00;101112.66;5015474;28;20242;-83
2022/02/11 12:29:37;;;;;;;1.00;0.90;;;;;;;4.02;100.00;101160.03;5015721;28;20346;-83
2022/02/11 12:32:04;;;;;;;2.47;1.20;;;;;;;4.05;100.00;101170.44;5016972;28;20623;-81
2022/02/11 12:34:31;;;;;;;1.70;1.30;;;;;;;4.11;100.00;101172.28;5016149;28;20285;-83
2022/02/11 12:37:07;;;;;;;2.83;1.67;;;;;;;4.13;99.73;101197.31;5016149;28;20208;-82
2022/02/11 12:39:35;;;;;;;2.57;2.37;;;;;;;4.16;99.40;101210.28;5016211;28;20191;-82
2022/02/11 12:42:02;;;;;;;3.27;3.00;;;;;;;4.17;98.86;101227.53;5015814;28;20565;-82
2022/02/11 12:44:30;;;;;;;3.50;3.20;;;;;;;4.20;98.03;101262.88;5016533;28;20231;-82
2022/02/11 12:46:59;;;;;;;3.67;3.10;;;;;;;4.22;98.17;101281.00;5016676;28;20285;-81
2022/02/11 12:49:26;;;;;;;4.20;3.73;;;;;;;4.16;98.04;101287.81;5015753;28;20258;-81
2022/02/11 12:51:55;;;;;;;4.03;3.73;;;;;;;4.14;98.01;101288.59;5015559;28;20670;-82
2022/02/11 12:54:22;;;;;;;4.10;3.80;;;;;;;4.11;97.37;101302.31;5015612;28;20232;-83
2022/02/11 12:57:01;;;;;;;3.87;3.60;;;;;;;4.10;96.50;101336.78;5017259;28;20208;-83
2022/02/11 12:59:28;;;;;;;4.70;3.93;;;;;;;4.06;97.02;101357.31;5016079;28;20203;-83
2022/02/11 13:01:54;;;;;;;4.37;4.00;;;;;;;3.98;97.33;101350.28;5015844;28;20211;-82
2022/02/11 13:04:21;;;;;;;4.30;3.90;;;;;;;3.90;98.10;101345.75;5016070;28;20296;-82
2022/02/11 13:06:48;;;;;;;5.17;4.30;;;;;;;3.87;98.30;101341.41;5018157;28;20207;-81
2022/02/11 13:09:16;;;;;;;5.03;4.60;;;;;;;3.82;98.50;101352.47;5015538;28;20231;-83
2022/02/11 13:11:43;;;;;;;4.83;4.17;;;;;;;3.79;97.76;101361.03;5016047;28;20587;-81
2022/02/11 13:14:11;;;;;;;4.67;4.27;;;;;;;3.73;97.76;101382.41;5016236;28;20229;-81
2022/02/11 13:16:38;;;;;;;4.23;3.93;;;;;;;3.63;97.29;101390.75;5015817;28;20210;-83
2022/02/11 13:19:15;;;;;;;4.13;3.83;;;;;;;3.58;97.66;101397.50;5014945;28;20690;-81
2022/02/11 13:21:42;;;;;;;4.63;4.27;;;;;;;3.62;97.13;101426.84;5014438;28;20227;-80
2022/02/11 13:24:09;;;;;;;4.40;4.10;;;;;;;3.65;97.43;101437.25;5014451;28;20226;-81
2022/02/11 13:26:37;;;;;;;4.40;4.10;;;;;;;3.58;96.40;101449.13;5015078;28;20203;-80
2022/02/11 13:29:14;;;;;;;3.63;3.33;;;;;;;3.70;95.91;101479.56;5014710;28;20272;-80
2022/02/11 13:31:47;;;;;;;3.70;3.40;;;;;;;3.71;94.07;101549.31;5014583;28;20195;-81
2022/02/11 13:34:14;;;;;;;3.37;3.10;;;;;;;3.74;92.78;101595.88;5014637;28;20643;-81
2022/02/11 13:36:45;;;;;;;4.00;2.80;;;;;;;3.79;91.12;101642.50;5014301;28;20234;-81
2022/02/11 13:39:24;;;;;;;2.13;2.00;;;;;;;3.76;90.09;101675.97;5014795;28;20203;-80
2022/02/11 13:41:51;;;;;;;2.00;1.87;;;;;;;3.79;89.71;101701.91;5014426;28;20651;-80
2022/02/11 13:44:21;;;;;;;2.40;2.30;;;;;;;3.79;89.30;101722.56;5014644;28;20292;-81
2022/02/11 13:46:51;;;;;;;2.50;2.30;;;;;;;3.81;89.98;101725.19;5014404;28;20213;-80
2022/02/11 13:49:17;;;;;;;2.40;2.20;;;;;;;3.81;88.91;101744.16;5014500;28;20273;-81
2022/02/11 13:53:01;;;;;;;2.40;2.20;;;;;;;3.77;89.73;101761.25;5014646;28;20203;-80
2022/02/11 13:54:31;;;;;;;2.50;2.30;;;;;;;3.82;88.76;101774.28;5014126;28;20251;-81
2022/02/11 13:56:59;;;;;;;2.80;2.60;;;;;;;3.80;89.36;101781.13;5014771;28;20570;-81
2022/02/11 13:59:30;;;;;;;2.50;2.30;;;;;;;3.80;89.26;101772.50;5013720;28;20249;-81
2022/02/11 14:02:04;;;;;;;2.63;2.43;;;;;;;3.80;89.54;101775.94;5015136;28;20190;-81
2022/02/11 14:04:33;;;;;;;3.57;3.27;;;;;;;3.82;89.83;101782.03;5014248;28;20274;-80
2022/02/11 14:07:01;;;;;;;2.90;2.60;;;;;;;3.82;90.13;101781.16;5014734;28;20212;-80
2022/02/11 14:09:29;;;;;;;4.93;3.77;;;;;;;3.81;90.26;101785.47;5014072;28;20231;-81
2022/02/11 14:11:57;;;;;;;5.63;4.27;;;;;;;3.78;90.03;101793.09;5014803;28;20207;-81
2022/02/11 14:14:23;;;;;;;4.63;4.23;;;;;;;3.74;89.72;101804.19;5014543;28;20226;-81
2022/02/11 14:16:52;;;;;;;5.37;4.50;;;;;;;3.72;90.06;101817.03;5014585;28;20207;-81
2022/02/11 14:19:24;;;;;;;4.50;3.93;;;;;;;3.74;90.18;101815.38;5014368;28;20209;-81
2022/02/11 14:21:50;;;;;;;4.10;3.80;;;;;;;3.81;90.32;101823.34;5014190;28;20213;-81
2022/02/11 14:24:17;;;;;;;4.70;3.57;;;;;;;3.83;90.59;101817.38;5013430;28;20235;-80
2022/02/11 14:26:43;;;;;;;6.43;4.33;;;;;;;3.83;90.39;101827.72;5014428;28;20326;-82
2022/02/11 14:29:11;;;;;;;4.47;4.03;;;;;;;3.80;90.28;101839.66;5015155;28;20765;-82
2022/02/11 14:31:39;;;;;;;4.40;4.00;;;;;;;3.79;90.68;101843.94;5014080;28;20210;-81
2022/02/11 14:34:07;;;;;;;3.93;3.63;;;;;;;3.83;90.38;101842.34;5014001;28;20681;-81
2022/02/11 14:36:35;;;;;;;4.57;4.17;;;;;;;3.91;90.25;101848.63;5013743;28;20657;-81